| time (UTC) | temp F | wind direction | speed MPH | gust MPH | rain 1hr in | rain 24hr in | rain mn in | humidity % | barometer mb |
| 20260506154232 | 52 | 218 | 5.0 | 12.0 | 0.00 | 0.22 | 0.14 | 85 | 1008.9 |
| 20260506153732 | 52 | 238 | 4.0 | 13.0 | 0.00 | 0.22 | 0.14 | 85 | 1009.1 |
| 20260506153232 | 52 | 163 | 5.0 | 13.0 | 0.00 | 0.22 | 0.14 | 85 | 1009.1 |
| 20260506152731 | 52 | 233 | 4.0 | 12.0 | 0.00 | 0.22 | 0.14 | 84 | 1009.2 |
| 20260506152231 | 52 | 195 | 4.0 | 12.0 | 0.00 | 0.22 | 0.14 | 84 | 1009.2 |
| 20260506151729 | 52 | 254 | 6.0 | 13.0 | 0.00 | 0.22 | 0.14 | 85 | 1009.2 |
| 20260506150723 | 53 | 228 | 4.0 | 8.0 | 0.00 | 0.22 | 0.14 | 86 | 1009.2 |
| 20260506150219 | 52 | 235 | 3.0 | 9.0 | 0.00 | 0.22 | 0.14 | 86 | 1009.3 |
| 20260506145717 | 52 | 212 | 4.0 | 9.0 | 0.00 | 0.22 | 0.14 | 86 | 1009.2 |
| 20260506145214 | 52 | 169 | 3.0 | 9.0 | 0.00 | 0.22 | 0.14 | 87 | 1009.1 |
| 20260506144711 | 52 | 193 | 4.0 | 9.0 | 0.01 | 0.22 | 0.14 | 87 | 1009.1 |
| 20260506144208 | 52 | 132 | 4.0 | 8.0 | 0.02 | 0.22 | 0.14 | 87 | 1009.1 |
| 20260506143705 | 52 | 226 | 4.0 | 9.0 | 0.03 | 0.22 | 0.14 | 87 | 1009.1 |
| 20260506143206 | 52 | 155 | 3.0 | 9.0 | 0.04 | 0.22 | 0.14 | 87 | 1009.1 |
| 20260506142704 | 51 | 263 | 2.0 | 12.0 | 0.05 | 0.22 | 0.14 | 87 | 1008.8 |
| 20260506142205 | 51 | 219 | 5.0 | 12.0 | 0.06 | 0.22 | 0.14 | 87 | 1008.9 |
| 20260506141705 | 51 | 197 | 5.0 | 12.0 | 0.06 | 0.22 | 0.14 | 87 | 1009.1 |
| 20260506140703 | 50 | 245 | 7.0 | 17.0 | 0.08 | 0.22 | 0.14 | 88 | 1009.1 |
| 20260506140202 | 50 | 226 | 6.0 | 10.0 | 0.08 | 0.22 | 0.14 | 88 | 1009.1 |
| 20260506135703 | 50 | 228 | 4.0 | 11.0 | 0.08 | 0.14 | 0.14 | 88 | 1009.1 |
| 20260506135202 | 50 | 201 | 7.0 | 13.0 | 0.09 | 0.14 | 0.13 | 87 | 1009.1 |
| 20260506134703 | 50 | 249 | 6.0 | 15.0 | 0.09 | 0.14 | 0.13 | 87 | 1008.9 |
| 20260506134158 | 50 | 233 | 7.0 | 18.0 | 0.09 | 0.14 | 0.12 | 87 | 1009.1 |
| 20260506133656 | 50 | 214 | 9.0 | 18.0 | 0.09 | 0.14 | 0.11 | 87 | 1009.1 |
| 20260506133153 | 51 | 226 | 6.0 | 12.0 | 0.09 | 0.14 | 0.10 | 87 | 1008.9 |
| 20260506132145 | 51 | 189 | 7.0 | 20.0 | 0.09 | 0.14 | 0.09 | 86 | 1008.7 |
| 20260506131644 | 51 | 211 | 5.0 | 25.0 | 0.08 | 0.14 | 0.08 | 86 | 1008.7 |
| 20260506131139 | 51 | 237 | 11.0 | 25.0 | 0.07 | 0.14 | 0.07 | 86 | 1008.4 |
| 20260506130635 | 51 | 240 | 8.0 | 21.0 | 0.06 | 0.14 | 0.06 | 86 | 1008.4 |
| 20260506130136 | 52 | 141 | 9.0 | 21.0 | 0.06 | 0.14 | 0.06 | 85 | 1008.4 |
| 20260506125633 | 52 | 200 | 11.0 | 23.0 | 0.06 | 0.08 | 0.06 | 85 | 1008.3 |
| 20260506125132 | 52 | 247 | 11.0 | 27.0 | 0.06 | 0.08 | 0.06 | 84 | 1008.2 |
| 20260506124631 | 53 | 235 | 13.0 | 27.0 | 0.05 | 0.08 | 0.05 | 83 | 1008.0 |
| 20260506124130 | 54 | 261 | 13.0 | 27.0 | 0.03 | 0.08 | 0.03 | 82 | 1007.9 |
| 20260506123626 | 55 | 261 | 11.0 | 17.0 | 0.02 | 0.08 | 0.02 | 82 | 1007.6 |
| 20260506123123 | 56 | 345 | 8.0 | 14.0 | 0.01 | 0.08 | 0.01 | 81 | 1007.4 |
| 20260506122619 | 56 | 228 | 6.0 | 13.0 | 0.01 | 0.08 | 0.01 | 80 | 1007.3 |
| 20260506121614 | 57 | 232 | 9.0 | 16.0 | 0.00 | 0.08 | 0.00 | 77 | 1006.9 |
| 20260506121109 | 57 | 207 | 8.0 | 14.0 | 0.00 | 0.08 | 0.00 | 78 | 1006.8 |
| 20260506120606 | 58 | 242 | 6.0 | 13.0 | 0.00 | 0.08 | 0.00 | 78 | 1006.8 |
| 20260506120105 | 58 | 236 | 5.0 | 13.0 | 0.00 | 0.08 | 0.00 | 77 | 1006.7 |
| 20260506115104 | 59 | 260 | 7.0 | 13.0 | 0.00 | 0.08 | 0.00 | 76 | 1006.5 |
| 20260506114559 | 59 | 263 | 4.0 | 13.0 | 0.00 | 0.08 | 0.00 | 76 | 1006.5 |
| 20260506114056 | 60 | 247 | 5.0 | 12.0 | 0.00 | 0.08 | 0.00 | 75 | 1006.4 |
| 20260506113049 | 60 | 232 | 4.0 | 9.0 | 0.00 | 0.08 | 0.00 | 74 | 1006.4 |
| 20260506112042 | 60 | 222 | 4.0 | 10.0 | 0.00 | 0.08 | 0.00 | 76 | 1006.3 |
| 20260506111539 | 59 | 256 | 6.0 | 10.0 | 0.00 | 0.08 | 0.00 | 75 | 1006.2 |
| 20260506111035 | 59 | 230 | 3.0 | 6.0 | 0.00 | 0.08 | 0.00 | 76 | 1006.3 |
| 20260506110533 | 59 | 317 | 2.0 | 10.0 | 0.00 | 0.08 | 0.00 | 75 | 1006.5 |
| 20260506110034 | 59 | 259 | 4.0 | 10.0 | 0.00 | 0.08 | 0.00 | 75 | 1006.7 |
| 20260506105531 | 59 | 231 | 4.0 | 7.0 | 0.00 | 0.08 | 0.00 | 78 | 1006.5 |
| 20260506105031 | 59 | 236 | 4.0 | 7.0 | 0.00 | 0.08 | 0.00 | 78 | 1006.4 |
| 20260506104532 | 59 | 212 | 3.0 | 9.0 | 0.00 | 0.09 | 0.00 | 78 | 1006.7 |
| 20260506104032 | 58 | 225 | 3.0 | 9.0 | 0.00 | 0.09 | 0.00 | 79 | 1006.7 |
| 20260506103028 | 59 | 240 | 3.0 | 4.0 | 0.00 | 0.09 | 0.00 | 79 | 1006.7 |
| 20260506102524 | 58 | 151 | 1.0 | 5.0 | 0.00 | 0.09 | 0.00 | 79 | 1006.5 |
| 20260506101518 | 58 | 257 | 4.0 | 7.0 | 0.00 | 0.09 | 0.00 | 79 | 1006.8 |
| 20260506100012 | 58 | 233 | 4.0 | 8.0 | 0.00 | 0.09 | 0.00 | 80 | 1007.0 |
| 20260506095512 | 58 | 243 | 4.0 | 8.0 | 0.00 | 0.09 | 0.00 | 80 | 1007.0 |
| 20260506095007 | 58 | 218 | 1.0 | 7.0 | 0.00 | 0.09 | 0.00 | 80 | 1006.9 |
| 20260506094504 | 58 | 180 | 4.0 | 8.0 | 0.00 | 0.09 | 0.00 | 79 | 1006.8 |
| 20260506094007 | 58 | 255 | 3.0 | 6.0 | 0.00 | 0.09 | 0.00 | 79 | 1006.8 |
| 20260506093504 | 57 | 237 | 3.0 | 5.0 | 0.00 | 0.09 | 0.00 | 80 | 1006.8 |
| 20260506093004 | 57 | 255 | 0.0 | 2.0 | 0.00 | 0.09 | 0.00 | 81 | 1006.5 |
| 20260506092503 | 56 | 256 | 0.0 | 2.0 | 0.00 | 0.09 | 0.00 | 82 | 1006.7 |
| 20260506092001 | 56 | 258 | 0.0 | 2.0 | 0.00 | 0.10 | 0.00 | 84 | 1006.5 |
| 20260506090954 | 56 | 258 | 0.0 | 2.0 | 0.00 | 0.11 | 0.00 | 84 | 1006.8 |
| 20260506090451 | 56 | 233 | 1.0 | 5.0 | 0.00 | 0.11 | 0.00 | 83 | 1006.8 |
| 20260506085949 | 56 | 232 | 2.0 | 5.0 | 0.00 | 0.11 | 0.00 | 82 | 1006.8 |
| 20260506084943 | 56 | 226 | 4.0 | 6.0 | 0.00 | 0.11 | 0.00 | 82 | 1006.9 |
| 20260506084440 | 56 | 240 | 2.0 | 6.0 | 0.00 | 0.11 | 0.00 | 83 | 1006.8 |
| 20260506083936 | 56 | 206 | 4.0 | 6.0 | 0.00 | 0.11 | 0.00 | 83 | 1006.7 |
| 20260506083431 | 56 | 218 | 1.0 | 5.0 | 0.00 | 0.11 | 0.00 | 84 | 1006.7 |
| 20260506082432 | 55 | 266 | 0.0 | 3.0 | 0.00 | 0.11 | 0.00 | 87 | 1006.7 |
| 20260506081929 | 55 | 270 | 0.0 | 3.0 | 0.00 | 0.11 | 0.00 | 88 | 1006.7 |
| 20260506081422 | 54 | 280 | 2.0 | 3.0 | 0.00 | 0.11 | 0.00 | 88 | 1006.7 |
| 20260506080917 | 54 | 283 | 0.0 | 2.0 | 0.00 | 0.11 | 0.00 | 89 | 1006.8 |
| 20260506073401 | 53 | 357 | 1.0 | 2.0 | 0.00 | 0.11 | 0.00 | 90 | 1006.8 |
| 20260506072842 | 53 | 357 | 0.0 | 1.0 | 0.00 | 0.11 | 0.00 | 90 | 1006.9 |
| 20260506072338 | 53 | 358 | 0.0 | 2.0 | 0.00 | 0.11 | 0.00 | 91 | 1006.9 |
| 20260506071835 | 52 | 358 | 0.0 | 2.0 | 0.00 | 0.11 | 0.00 | 91 | 1006.9 |
| 20260506071335 | 52 | 355 | 0.0 | 1.0 | 0.00 | 0.11 | 0.00 | 91 | 1007.0 |
| 20260506070834 | 52 | 356 | 0.0 | 3.0 | 0.00 | 0.11 | 0.00 | 91 | 1007.0 |
| 20260506061834 | 50 | 345 | 0.0 | 0.0 | 0.00 | 0.11 | 0.00 | 92 | 1007.0 |
| 20260506061331 | 50 | 345 | 0.0 | 0.0 | 0.00 | 0.11 | 0.00 | 91 | 1007.1 |
| 20260506060831 | 50 | 345 | 0.0 | 0.0 | 0.00 | 0.11 | 0.00 | 92 | 1007.0 |
| 20260506051302 | 49 | 347 | 0.0 | 0.0 | 0.00 | 0.11 | 0.00 | 92 | 1007.2 |
| 20260506050802 | 49 | 347 | 0.0 | 0.0 | 0.00 | 0.11 | 0.00 | 91 | 1007.1 |
| 20260506050257 | 48 | 347 | 0.0 | 0.0 | 0.00 | 0.11 | 0.00 | 91 | 1007.1 |
| 20260506044748 | 49 | 347 | 0.0 | 0.0 | 0.00 | 0.11 | 0.00 | 91 | 1007.1 |
| 20260506044242 | 48 | 347 | 0.0 | 1.0 | 0.00 | 0.11 | 0.00 | 91 | 1007.1 |
| 20260506043738 | 48 | 347 | 0.0 | 1.0 | 0.00 | 0.11 | 0.00 | 91 | 1007.1 |
| 20260506043236 | 48 | 347 | 0.0 | 0.0 | 0.00 | 0.11 | 0.00 | 91 | 1007.1 |
| 20260506042732 | 48 | 347 | 0.0 | 0.0 | 0.00 | 0.11 | 0.00 | 91 | 1007.2 |
| 20260506042232 | 48 | 347 | 0.0 | 0.0 | 0.00 | 0.11 | 0.00 | 91 | 1007.3 |
| 20260506041727 | 48 | 347 | 0.0 | 0.0 | 0.00 | 0.11 | 0.00 | 91 | 1007.2 |
| 20260506041223 | 48 | 347 | 0.0 | 0.0 | 0.00 | 0.11 | 0.00 | 91 | 1007.2 |
| 20260506040720 | 48 | 347 | 0.0 | 0.0 | 0.00 | 0.11 | 0.00 | 91 | 1007.4 |
| 20260506040216 | 48 | 347 | 0.0 | 0.0 | 0.00 | 0.11 | 0.00 | 91 | 1007.4 |
| 20260506035713 | 48 | 347 | 0.0 | 0.0 | 0.00 | 0.11 | 0.00 | 91 | 1007.4 |
| 20260506035209 | 48 | 347 | 0.0 | 0.0 | 0.00 | 0.11 | 0.00 | 91 | 1007.5 |
| 20260506034706 | 48 | 347 | 0.0 | 0.0 | 0.00 | 0.11 | 0.00 | 91 | 1007.6 |
| 20260506034204 | 48 | 347 | 0.0 | 0.0 | 0.00 | 0.11 | 0.00 | 91 | 1007.7 |
| 20260506033705 | 49 | 347 | 0.0 | 3.0 | 0.00 | 0.11 | 0.00 | 91 | 1007.7 |
| 20260506032705 | 49 | 347 | 1.0 | 4.0 | 0.00 | 0.11 | 0.00 | 91 | 1007.9 |
| 20260506032203 | 49 | 324 | 0.0 | 3.0 | 0.00 | 0.11 | 0.00 | 91 | 1007.8 |
| 20260506031705 | 49 | 295 | 0.0 | 1.0 | 0.00 | 0.11 | 0.00 | 91 | 1007.9 |
| 20260506031202 | 49 | 295 | 0.0 | 1.0 | 0.00 | 0.11 | 0.00 | 91 | 1008.0 |
| 20260506030202 | 49 | 295 | 0.0 | 0.0 | 0.00 | 0.11 | 0.00 | 91 | 1007.9 |
| 20260506025703 | 49 | 295 | 0.0 | 0.0 | 0.00 | 0.11 | 0.00 | 91 | 1007.9 |
| 20260506025202 | 49 | 295 | 0.0 | 0.0 | 0.00 | 0.11 | 0.00 | 91 | 1007.9 |
| 20260506024702 | 49 | 295 | 0.0 | 0.0 | 0.00 | 0.11 | 0.00 | 91 | 1008.1 |
| 20260506023649 | 49 | 295 | 0.0 | 0.0 | 0.00 | 0.11 | 0.00 | 91 | 1008.2 |
| 20260506023147 | 49 | 295 | 0.0 | 0.0 | 0.00 | 0.11 | 0.00 | 91 | 1008.2 |
| 20260506022633 | 49 | 295 | 0.0 | 0.0 | 0.00 | 0.11 | 0.00 | 91 | 1008.3 |
| 20260506022133 | 49 | 295 | 0.0 | 0.0 | 0.00 | 0.11 | 0.00 | 91 | 1008.3 |
| 20260506021123 | 49 | 295 | 0.0 | 0.0 | 0.00 | 0.11 | 0.00 | 91 | 1008.4 |
| 20260506020614 | 49 | 295 | 0.0 | 0.0 | 0.00 | 0.11 | 0.00 | 90 | 1008.5 |
| 20260506015604 | 49 | 295 | 0.0 | 0.0 | 0.00 | 0.11 | 0.00 | 91 | 1008.6 |
| 20260506015104 | 49 | 295 | 0.0 | 0.0 | 0.00 | 0.11 | 0.00 | 91 | 1008.6 |
| 20260506014604 | 49 | 295 | 0.0 | 0.0 | 0.00 | 0.11 | 0.00 | 90 | 1008.6 |
| 20260506014101 | 50 | 295 | 0.0 | 0.0 | 0.00 | 0.11 | 0.00 | 90 | 1008.7 |
| 20260506013553 | 49 | 295 | 0.0 | 0.0 | 0.00 | 0.11 | 0.00 | 90 | 1008.8 |
| 20260506013050 | 49 | 295 | 0.0 | 0.0 | 0.00 | 0.11 | 0.00 | 90 | 1008.7 |
| 20260506012534 | 49 | 295 | 0.0 | 0.0 | 0.00 | 0.11 | 0.00 | 90 | 1008.7 |
| 20260506012029 | 50 | 295 | 0.0 | 0.0 | 0.00 | 0.11 | 0.00 | 90 | 1008.7 |
| 20260506011521 | 50 | 295 | 0.0 | 0.0 | 0.00 | 0.11 | 0.00 | 90 | 1008.5 |
| 20260506011013 | 50 | 295 | 0.0 | 0.0 | 0.00 | 0.11 | 0.00 | 90 | 1008.7 |
| 20260506010509 | 50 | 295 | 0.0 | 0.0 | 0.00 | 0.11 | 0.00 | 90 | 1008.8 |
| 20260506010009 | 50 | 295 | 0.0 | 0.0 | 0.00 | 0.11 | 0.00 | 90 | 1008.9 |
| 20260506005507 | 50 | 295 | 0.0 | 1.0 | 0.00 | 0.11 | 0.00 | 90 | 1008.8 |
| 20260506005008 | 50 | 295 | 0.0 | 2.0 | 0.00 | 0.11 | 0.00 | 90 | 1008.9 |
| 20260506004505 | 50 | 295 | 2.0 | 2.0 | 0.00 | 0.11 | 0.00 | 90 | 1008.9 |
| 20260506004005 | 50 | 317 | 0.0 | 0.0 | 0.00 | 0.11 | 0.00 | 90 | 1008.9 |
| 20260506003457 | 50 | 317 | 0.0 | 0.0 | 0.00 | 0.11 | 0.00 | 90 | 1009.1 |
| 20260506002953 | 50 | 317 | 0.0 | 1.0 | 0.00 | 0.11 | 0.00 | 90 | 1009.1 |
| 20260506002450 | 51 | 317 | 0.0 | 1.0 | 0.00 | 0.11 | 0.00 | 90 | 1009.2 |
| 20260506001947 | 51 | 317 | 0.0 | 1.0 | 0.00 | 0.11 | 0.00 | 90 | 1009.3 |
| 20260505235916 | 51 | 317 | 0.0 | 0.0 | 0.00 | 0.11 | 0.00 | 90 | 1009.3 |
| 20260505235414 | 51 | 317 | 0.0 | 0.0 | 0.00 | 0.11 | 0.00 | 89 | 1009.2 |
| 20260505234911 | 51 | 317 | 0.0 | 1.0 | 0.00 | 0.11 | 0.00 | 90 | 1009.2 |
| 20260505234409 | 52 | 317 | 0.0 | 1.0 | 0.00 | 0.11 | 0.00 | 90 | 1009.2 |
| 20260505233906 | 52 | 17 | 0.0 | 0.0 | 0.00 | 0.11 | 0.00 | 90 | 1009.2 |
| 20260505233407 | 52 | 17 | 0.0 | 0.0 | 0.00 | 0.11 | 0.00 | 90 | 1009.3 |
| 20260505232902 | 51 | 17 | 0.0 | 0.0 | 0.00 | 0.11 | 0.00 | 89 | 1009.3 |
| 20260505232401 | 52 | 17 | 0.0 | 0.0 | 0.00 | 0.11 | 0.00 | 89 | 1009.6 |
| 20260505231354 | 52 | 17 | 0.0 | 0.0 | 0.00 | 0.11 | 0.00 | 89 | 1009.6 |
| 20260505230851 | 52 | 17 | 0.0 | 0.0 | 0.00 | 0.11 | 0.00 | 89 | 1009.6 |
| 20260505230348 | 52 | 17 | 0.0 | 0.0 | 0.00 | 0.11 | 0.00 | 89 | 1009.7 |
| 20260505225847 | 52 | 17 | 0.0 | 0.0 | 0.00 | 0.11 | 0.00 | 89 | 1009.6 |
| 20260505225335 | 53 | 17 | 0.0 | 0.0 | 0.00 | 0.11 | 0.00 | 89 | 1009.6 |
| 20260505224835 | 53 | 17 | 0.0 | 0.0 | 0.00 | 0.11 | 0.00 | 89 | 1009.5 |
| 20260505223835 | 53 | 17 | 0.0 | 0.0 | 0.00 | 0.11 | 0.00 | 89 | 1009.5 |
| 20260505223335 | 53 | 17 | 0.0 | 0.0 | 0.00 | 0.11 | 0.00 | 89 | 1009.4 |
| 20260505222327 | 53 | 17 | 0.0 | 0.0 | 0.00 | 0.11 | 0.00 | 89 | 1009.5 |
| 20260505221824 | 53 | 17 | 0.0 | 0.0 | 0.00 | 0.11 | 0.00 | 89 | 1009.4 |
| 20260505220803 | 53 | 17 | 0.0 | 3.0 | 0.00 | 0.11 | 0.00 | 89 | 1009.6 |
| 20260505220302 | 53 | 17 | 1.0 | 3.0 | 0.00 | 0.11 | 0.00 | 88 | 1009.7 |
| 20260505215753 | 54 | 243 | 0.0 | 1.0 | 0.00 | 0.11 | 0.11 | 88 | 1009.7 |
| 20260505215250 | 53 | 243 | 0.0 | 1.0 | 0.00 | 0.11 | 0.11 | 88 | 1009.7 |
| 20260505214747 | 53 | 243 | 0.0 | 1.0 | 0.00 | 0.11 | 0.11 | 88 | 1009.8 |
| 20260505213741 | 53 | 243 | 1.0 | 3.0 | 0.00 | 0.11 | 0.11 | 88 | 1009.7 |
| 20260505213238 | 53 | 219 | 2.0 | 3.0 | 0.00 | 0.11 | 0.11 | 88 | 1009.9 |
| 20260505212735 | 53 | 216 | 1.0 | 3.0 | 0.00 | 0.11 | 0.11 | 88 | 1009.9 |
| 20260505212233 | 53 | 216 | 1.0 | 4.0 | 0.00 | 0.11 | 0.11 | 88 | 1010.0 |
| 20260505211733 | 53 | 191 | 1.0 | 4.0 | 0.00 | 0.11 | 0.11 | 89 | 1010.0 |
| 20260505210732 | 53 | 234 | 2.0 | 4.0 | 0.00 | 0.11 | 0.11 | 88 | 1009.9 |
| 20260505210232 | 53 | 256 | 1.0 | 2.0 | 0.00 | 0.11 | 0.11 | 88 | 1009.9 |
| 20260505205231 | 53 | 257 | 0.0 | 2.0 | 0.00 | 0.11 | 0.11 | 88 | 1009.9 |
| 20260505204714 | 53 | 257 | 1.0 | 3.0 | 0.00 | 0.11 | 0.11 | 88 | 1009.9 |
| 20260505204210 | 53 | 257 | 1.0 | 3.0 | 0.00 | 0.11 | 0.11 | 88 | 1010.0 |
| 20260505203706 | 53 | 286 | 0.0 | 3.0 | 0.00 | 0.11 | 0.11 | 88 | 1010.0 |
| 20260505202706 | 53 | 290 | 0.0 | 1.0 | 0.00 | 0.11 | 0.11 | 88 | 1009.9 |
| 20260505202205 | 53 | 290 | 0.0 | 1.0 | 0.00 | 0.11 | 0.11 | 88 | 1009.8 |
| 20260505201704 | 53 | 290 | 0.0 | 2.0 | 0.00 | 0.11 | 0.11 | 88 | 1009.9 |
| 20260505201204 | 53 | 290 | 0.0 | 2.0 | 0.00 | 0.11 | 0.11 | 88 | 1009.8 |
| 20260505200704 | 53 | 287 | 0.0 | 2.0 | 0.00 | 0.11 | 0.11 | 88 | 1009.8 |
| 20260505200203 | 53 | 240 | 0.0 | 5.0 | 0.00 | 0.11 | 0.11 | 88 | 1009.8 |
| 20260505195657 | 53 | 240 | 2.0 | 5.0 | 0.00 | 0.11 | 0.11 | 88 | 1009.7 |
| 20260505195155 | 54 | 235 | 1.0 | 4.0 | 0.00 | 0.11 | 0.11 | 88 | 1009.6 |
| 20260505194652 | 54 | 229 | 0.0 | 4.0 | 0.00 | 0.11 | 0.11 | 87 | 1009.6 |
| 20260505193646 | 54 | 244 | 2.0 | 5.0 | 0.00 | 0.11 | 0.11 | 87 | 1009.6 |
| 20260505192639 | 55 | 232 | 2.0 | 5.0 | 0.00 | 0.11 | 0.11 | 87 | 1009.5 |
| 20260505192136 | 55 | 255 | 2.0 | 6.0 | 0.00 | 0.11 | 0.11 | 87 | 1009.4 |
| 20260505190132 | 55 | 227 | 0.0 | 7.0 | 0.00 | 0.11 | 0.11 | 86 | 1009.2 |
| 20260505185633 | 55 | 226 | 2.0 | 7.0 | 0.00 | 0.11 | 0.11 | 86 | 1009.2 |
| 20260505185131 | 55 | 224 | 3.0 | 7.0 | 0.00 | 0.11 | 0.11 | 86 | 1009.2 |
| 20260505184631 | 56 | 253 | 1.0 | 3.0 | 0.00 | 0.11 | 0.11 | 86 | 1009.3 |
| 20260505184128 | 55 | 219 | 1.0 | 5.0 | 0.00 | 0.11 | 0.11 | 86 | 1009.2 |
| 20260505183623 | 55 | 214 | 2.0 | 5.0 | 0.00 | 0.11 | 0.11 | 86 | 1009.3 |
| 20260505183121 | 56 | 224 | 2.0 | 3.0 | 0.00 | 0.11 | 0.11 | 86 | 1009.1 |
| 20260505182618 | 56 | 224 | 1.0 | 3.0 | 0.00 | 0.11 | 0.11 | 86 | 1009.2 |
| 20260505181610 | 55 | 203 | 2.0 | 7.0 | 0.01 | 0.11 | 0.11 | 86 | 1009.1 |
| 20260505181107 | 55 | 212 | 2.0 | 7.0 | 0.02 | 0.11 | 0.11 | 86 | 1009.2 |
| 20260505180110 | 55 | 251 | 4.0 | 9.0 | 0.06 | 0.06 | 0.11 | 86 | 1009.2 |
| 20260505175603 | 55 | 218 | 2.0 | 9.0 | 0.06 | 0.06 | 0.11 | 86 | 1009.1 |
| 20260505175103 | 55 | 201 | 2.0 | 5.0 | 0.06 | 0.06 | 0.11 | 86 | 1009.1 |
| 20260505174603 | 55 | 232 | 3.0 | 5.0 | 0.06 | 0.06 | 0.11 | 86 | 1009.2 |
| 20260505174100 | 55 | 211 | 2.0 | 6.0 | 0.07 | 0.06 | 0.11 | 86 | 1009.2 |
| 20260505173556 | 55 | 229 | 3.0 | 6.0 | 0.07 | 0.06 | 0.11 | 86 | 1008.9 |
| 20260505173054 | 55 | 223 | 2.0 | 4.0 | 0.07 | 0.06 | 0.11 | 86 | 1009.1 |
| 20260505172550 | 55 | 238 | 2.0 | 10.0 | 0.07 | 0.06 | 0.11 | 85 | 1009.2 |
| 20260505172047 | 55 | 227 | 3.0 | 10.0 | 0.07 | 0.06 | 0.10 | 84 | 1009.2 |
| 20260505171544 | 55 | 254 | 3.0 | 7.0 | 0.07 | 0.06 | 0.10 | 83 | 1009.3 |
| 20260505171041 | 55 | 209 | 3.0 | 10.0 | 0.06 | 0.06 | 0.09 | 83 | 1008.9 |
| 20260505170537 | 55 | 149 | 5.0 | 11.0 | 0.03 | 0.06 | 0.06 | 85 | 1009.1 |
| 20260505165031 | 56 | 194 | 7.0 | 15.0 | 0.02 | 0.03 | 0.05 | 79 | 1009.1 |
| 20260505164531 | 56 | 213 | 8.0 | 14.0 | 0.02 | 0.03 | 0.05 | 79 | 1009.2 |
| 20260505164030 | 56 | 221 | 6.0 | 12.0 | 0.01 | 0.03 | 0.04 | 78 | 1009.2 |
| 20260505163526 | 57 | 185 | 5.0 | 12.0 | 0.01 | 0.03 | 0.04 | 77 | 1009.1 |
| 20260505163022 | 57 | 214 | 7.0 | 16.0 | 0.01 | 0.03 | 0.04 | 75 | 1009.1 |
| 20260505162519 | 58 | 237 | 9.0 | 17.0 | 0.01 | 0.03 | 0.04 | 73 | 1009.1 |
| 20260505162016 | 58 | 220 | 11.0 | 17.0 | 0.00 | 0.03 | 0.03 | 70 | 1008.8 |
| 20260505161512 | 59 | 223 | 8.0 | 19.0 | 0.00 | 0.03 | 0.03 | 68 | 1008.9 |
| 20260505161008 | 60 | 246 | 11.0 | 19.0 | 0.00 | 0.03 | 0.03 | 65 | 1008.7 |
| 20260505160505 | 61 | 219 | 13.0 | 18.0 | 0.00 | 0.03 | 0.03 | 64 | 1008.5 |